Saldungaray, Argentina
Current Conditions -  °F | °C
As of 3:00 PM on Saturday 20 Dec 2014 (Local Time) from SAZM Reporting Station
Broken Clouds Broken Clouds  
Wind Chill: 66°   Ceiling: 20000
Heat Index: 66°   Visibility: 6mi
Dew Point: 50°   Wind: 23mph
Humidity: 56%   Direction: 160°SSE
Pressure: 29.68"   Gusts: NA
Location:  38.2°S, 61.78°W
Report Text: SAZM 201800Z 16020KT 9999 FEW020 BKN20019/10 Q1005
Loading
Personal Weather Stations






























Interactive Weather Map New forecast layout! Learn more

10-Day Weather Forecast

Advertisements
Track Severe Weather on mobile